Augusta, KS

1:18 AM CDT on October 25, 2014 (GMT -0500)
The Highlands | Change Station
CLOSE
Current Station
Personal Weather Station
Location: Andover, KS
Elevation: 1326 ft
Nearby Weather Stations

Elev 1326 ft 37.68 °N, 97.12 °W | Updated 6 seconds ago

Clear
Clear
61.7 °F
Feels Like 61.7 °F
N
0.8
Wind Variable Wind from SSW
Gusts 1.2 mph

Today
High -- | Low -- °F
--% Chance of Precip.
Yesterday
High -- | Low -- °F
Precip. -- in
7:45 AM 6:37 PM
New Moon, 2% visible
Pressure 29.99 in
Visibility 10.0 miles
Clouds Clear
Dew Point 60 °F
Humidity 93%
Rainfall 0.00 in
Snow Depth Not available.
UV 0 out of 12
Pollen 3.60 out of 12
Air Quality Not available.
Flu Activity No Activity
METAR KAAO 250554Z AUTO 22007KT 10SM CLR 19/16 A3002 RMK AO2 SLP156 T01940156 10228 20189 402780128 50001 $

More Conditions Fewer Conditions

Pressure 29.99 in
Visibility 10.0 miles
Clouds Clear
Dew Point 60 °F
Humidity 93%
Rainfall 0.00 in
Snow Depth Not available.
UV 0 out of 12
Pollen 3.60 out of 12
Air Quality Not available.
Flu Activity No Activity
METAR KAAO 250554Z AUTO 22007KT 10SM CLR 19/16 A3002 RMK AO2 SLP156 T01940156 10228 20189 402780128 50001 $

More Conditions Fewer Conditions

10-Day Weather Forecast

Almanac

Astronomy

Oct. 25, 2014 Rise Set
Actual Time 7:45 AM CDT 6:37 PM CDT
Civil Twilight 7:19 AM CDT 7:04 PM CDT
Nautical Twilight 6:48 AM CDT 7:34 PM CDT
Astronomical Twilight 6:18 AM CDT 8:05 PM CDT
Moon 9:24 AM CDT 8:03 PM CDT
Length of Visible Light 11h 44m
Length of Day
10h 51m
Tomorrow will be 2m 13s shorter.
New Moon, 2% of the Moon is Illuminated
Today
New Moon
Oct 30
First Quarter
Nov 6
Full
Nov 14
Last Quarter
Nov 22
New

Today's Extremes

State Highs State Lows

Community

WunderPhotos

Upload Photos

1,764,785 photos uploaded!

Nearby

Snow Depth

Station Depth Elevation
No new snow has been reported.

Earthquake Activity

City Distance Mag. Time & Date
Pawnee, Oklahoma 92 miles 2.6 7:24 PM CDT
2014-10-24
Medford, Oklahoma 77 miles 2.6 12:44 PM CDT
2014-10-24
Anthony, Kansas 67 miles 2.7 4:24 AM CDT
2014-10-24
Medford, Oklahoma 82 miles 3.0 2:06 AM CDT
2014-10-23
Minimum magnitude displayed is 2.5.

Coastal Water Temperatures

Place Temperature
No Stations Reporting

Nearby Weather Stations